createdAt,value
2023-01-29T00:02:26.760Z,88.55
2023-01-29T00:06:10.570Z,88.04
2023-01-29T00:09:34.765Z,87.57
2023-01-29T00:13:12.321Z,87.37
2023-01-29T00:16:50.133Z,87.32
2023-01-29T00:20:30.676Z,87.02
2023-01-29T00:24:05.636Z,86.65
2023-01-29T00:27:44.697Z,87.03
2023-01-29T00:31:23.818Z,86.18
2023-01-29T00:34:58.241Z,86.27
2023-01-29T00:38:36.769Z,86.03
2023-01-29T00:42:32.641Z,85.89
2023-01-29T00:46:16.398Z,85.68
2023-01-29T00:49:41.429Z,86.23
2023-01-29T00:53:20.788Z,86.56
2023-01-29T00:56:56.867Z,86.39
2023-01-29T01:00:34.644Z,86.14
2023-01-29T01:04:12.887Z,85.90
2023-01-29T01:07:58.035Z,84.75
2023-01-29T01:11:46.469Z,85.16
2023-01-29T01:15:11.521Z,85.62
2023-01-29T01:19:06.834Z,85.57
2023-01-29T01:22:50.936Z,85.26
2023-01-29T01:26:15.600Z,85.43
2023-01-29T01:29:52.430Z,85.45
2023-01-29T01:33:30.016Z,85.59
2023-01-29T01:37:07.611Z,85.44
2023-01-29T01:41:04.382Z,85.14
2023-01-29T01:45:04.318Z,85.28
2023-01-29T01:48:28.359Z,85.15
2023-01-29T01:52:06.609Z,84.95
2023-01-29T01:55:50.619Z,84.80
2023-01-29T01:59:24.026Z,85.03
2023-01-29T02:03:19.729Z,85.03
2023-01-29T02:07:06.192Z,85.22
2023-01-29T02:10:42.203Z,85.00
2023-01-29T02:14:09.181Z,84.71
2023-01-29T02:17:48.471Z,84.26
2023-01-29T02:21:41.880Z,83.75
2023-01-29T02:25:48.226Z,83.88
2023-01-29T02:29:23.096Z,83.78
2023-01-29T02:33:28.336Z,82.85
2023-01-29T02:37:09.680Z,83.63
2023-01-29T02:41:11.996Z,83.00
2023-01-29T02:45:00.521Z,82.88
2023-01-29T02:48:59.672Z,83.01
2023-01-29T02:53:22.269Z,82.85
2023-01-29T02:57:16.298Z,82.81
2023-01-29T03:00:47.629Z,83.24
2023-01-29T03:04:27.841Z,83.06
2023-01-29T03:08:36.102Z,82.37
2023-01-29T03:12:19.942Z,81.79
2023-01-29T03:16:01.644Z,82.50
2023-01-29T03:20:10.018Z,82.61
2023-01-29T03:24:14.862Z,82.26
2023-01-29T03:28:21.340Z,81.55
2023-01-29T03:32:06.651Z,82.15
2023-01-29T03:35:37.481Z,81.88
2023-01-29T03:39:11.539Z,81.95
2023-01-29T03:42:48.121Z,82.43
2023-01-29T03:46:48.850Z,82.27
2023-01-29T03:50:29.961Z,82.28
2023-01-29T03:54:14.300Z,82.00
2023-01-29T03:58:06.320Z,81.94
2023-01-29T04:02:09.636Z,82.18
2023-01-29T04:05:44.075Z,82.21
2023-01-29T04:09:23.397Z,81.78
2023-01-29T04:13:04.418Z,81.97
2023-01-29T04:16:55.177Z,82.29
2023-01-29T04:20:41.189Z,82.79
2023-01-29T04:24:19.500Z,82.88
2023-01-29T04:28:25.431Z,82.92
2023-01-29T04:32:00.198Z,82.40
2023-01-29T04:35:36.221Z,82.14
2023-01-29T04:39:31.901Z,81.97
2023-01-29T04:43:25.529Z,81.92
2023-01-29T04:47:10.215Z,81.88
2023-01-29T04:51:00.556Z,82.03
2023-01-29T04:54:34.061Z,81.90
2023-01-29T04:58:16.448Z,81.80
2023-01-29T05:02:01.946Z,81.73
2023-01-29T05:05:48.349Z,81.75
2023-01-29T05:09:18.616Z,81.68
2023-01-29T05:13:14.647Z,81.78
2023-01-29T05:17:02.853Z,81.63
2023-01-29T05:20:28.018Z,81.76
2023-01-29T05:24:25.634Z,81.45
2023-01-29T05:28:06.346Z,81.67
2023-01-29T05:31:31.507Z,82.09
2023-01-29T05:35:28.986Z,82.36
2023-01-29T05:38:53.402Z,82.37
2023-01-29T05:42:50.285Z,82.32
2023-01-29T05:46:14.450Z,81.50
2023-01-29T05:50:12.180Z,81.85
2023-01-29T05:53:36.370Z,81.31
2023-01-29T05:57:36.829Z,81.29
2023-01-29T06:01:17.121Z,81.14
2023-01-29T06:04:42.832Z,80.98
2023-01-29T06:08:19.522Z,80.71
2023-01-29T06:11:57.319Z,80.81
2023-01-29T06:15:53.965Z,80.84
2023-01-29T06:19:18.466Z,81.00
2023-01-29T06:23:18.061Z,81.49
2023-01-29T06:27:02.129Z,81.81
2023-01-29T06:30:28.327Z,81.31
2023-01-29T06:34:23.214Z,81.19
2023-01-29T06:38:06.565Z,81.21
2023-01-29T06:41:51.998Z,81.18
2023-01-29T06:45:15.958Z,81.24
2023-01-29T06:49:14.252Z,81.16
2023-01-29T06:52:58.662Z,81.14
2023-01-29T06:56:41.730Z,81.68
2023-01-29T07:00:25.003Z,82.25
2023-01-29T07:04:11.666Z,82.06
2023-01-29T07:07:58.050Z,82.15
2023-01-29T07:11:40.361Z,82.11
2023-01-29T07:15:04.832Z,81.84
2023-01-29T07:18:42.020Z,81.83
2023-01-29T07:22:38.471Z,81.94
2023-01-29T07:26:03.709Z,82.66
2023-01-29T07:29:41.205Z,82.91
2023-01-29T07:33:36.466Z,83.22
2023-01-29T07:37:01.142Z,83.34
2023-01-29T07:40:38.944Z,83.26
2023-01-29T07:44:16.637Z,82.82
2023-01-29T07:48:14.823Z,82.99
2023-01-29T07:51:57.951Z,83.02
2023-01-29T07:55:43.635Z,83.34
2023-01-29T07:59:07.437Z,83.67
2023-01-29T08:03:06.161Z,83.72
2023-01-29T08:06:30.552Z,83.59
2023-01-29T08:10:28.806Z,83.56
2023-01-29T08:13:54.650Z,83.36
2023-01-29T08:17:58.022Z,83.61
2023-01-29T08:21:22.966Z,83.99
2023-01-29T08:25:08.578Z,83.82
2023-01-29T08:28:56.973Z,83.84
2023-01-29T08:32:21.104Z,83.56
2023-01-29T08:36:19.397Z,83.43
2023-01-29T08:40:03.412Z,83.51
2023-01-29T08:43:31.114Z,83.45
2023-01-29T08:47:24.291Z,83.37
2023-01-29T08:50:53.215Z,83.23
2023-01-29T08:54:45.122Z,82.58
2023-01-29T08:58:28.244Z,82.33
2023-01-29T09:01:53.898Z,82.68
2023-01-29T09:05:50.961Z,82.52
2023-01-29T09:09:38.084Z,82.18
2023-01-29T09:13:02.627Z,81.61
2023-01-29T09:16:59.057Z,81.49
2023-01-29T09:20:23.180Z,81.94
2023-01-29T09:24:19.691Z,81.84
2023-01-29T09:27:43.928Z,81.71
2023-01-29T09:31:40.435Z,81.15
2023-01-29T09:35:23.920Z,80.69
2023-01-29T09:39:09.863Z,80.15
2023-01-29T09:42:36.278Z,79.70
2023-01-29T09:46:38.123Z,79.21
2023-01-29T09:50:26.140Z,79.66
2023-01-29T09:54:17.742Z,80.36
2023-01-29T09:58:35.393Z,79.97
2023-01-29T10:02:06.342Z,80.03
2023-01-29T10:06:12.241Z,79.66
2023-01-29T10:09:49.271Z,79.37
2023-01-29T10:13:48.200Z,78.85
2023-01-29T10:18:11.569Z,78.87
2023-01-29T10:22:09.463Z,78.94
2023-01-29T10:25:40.110Z,79.33
2023-01-29T10:29:33.399Z,79.28
2023-01-29T10:33:24.162Z,78.68
2023-01-29T10:36:49.912Z,78.59
2023-01-29T10:41:07.588Z,78.00
2023-01-29T10:44:40.520Z,78.07
2023-01-29T10:48:43.992Z,78.16
2023-01-29T10:52:51.142Z,77.83
2023-01-29T10:56:35.001Z,77.98
2023-01-29T11:00:24.629Z,78.22
2023-01-29T11:04:12.249Z,78.03
2023-01-29T11:08:04.597Z,77.63
2023-01-29T11:11:41.696Z,77.42
2023-01-29T11:15:33.641Z,76.82
2023-01-29T11:19:01.266Z,77.01
2023-01-29T11:22:58.804Z,77.13
2023-01-29T11:26:23.944Z,76.60
2023-01-29T11:30:00.676Z,75.91
2023-01-29T11:33:37.986Z,76.32
2023-01-29T11:37:17.142Z,76.09
2023-01-29T11:41:21.674Z,74.92
2023-01-29T11:44:46.034Z,74.84
2023-01-29T11:48:54.819Z,74.64
2023-01-29T11:52:42.880Z,74.57
2023-01-29T11:56:42.697Z,75.11
2023-01-29T12:00:38.443Z,74.99
2023-01-29T12:04:24.148Z,75.37
2023-01-29T12:07:54.496Z,74.73
2023-01-29T12:11:44.825Z,74.56
2023-01-29T12:15:17.056Z,74.07
2023-01-29T12:18:54.442Z,74.69
2023-01-29T12:23:05.162Z,73.90
2023-01-29T12:26:49.500Z,74.62
2023-01-29T12:30:27.419Z,74.63
2023-01-29T12:34:33.845Z,74.73
2023-01-29T12:38:24.460Z,74.54
2023-01-29T12:42:13.265Z,73.97
2023-01-29T12:46:02.160Z,74.65
2023-01-29T12:49:35.667Z,73.62
2023-01-29T12:53:29.133Z,73.73
2023-01-29T12:57:31.678Z,73.74
2023-01-29T13:01:20.420Z,74.22
2023-01-29T13:05:23.110Z,74.60
2023-01-29T13:08:58.124Z,75.16
2023-01-29T13:12:26.263Z,74.71
2023-01-29T13:16:09.233Z,73.88
2023-01-29T13:20:31.344Z,74.07
2023-01-29T13:24:04.791Z,73.31
2023-01-29T13:27:53.440Z,74.00
2023-01-29T13:31:40.521Z,73.85
2023-01-29T13:35:24.465Z,73.67
2023-01-29T13:39:00.374Z,73.84
2023-01-29T13:42:48.165Z,74.43
2023-01-29T13:46:15.097Z,74.94
2023-01-29T13:49:57.508Z,74.82
2023-01-29T13:53:32.599Z,74.84
2023-01-29T13:57:05.221Z,74.60
2023-01-29T14:00:42.807Z,74.03
2023-01-29T14:04:39.377Z,74.14
2023-01-29T14:08:09.605Z,73.38
2023-01-29T14:11:48.341Z,73.92
2023-01-29T14:15:25.513Z,73.81
2023-01-29T14:19:06.858Z,73.77
2023-01-29T14:22:57.195Z,74.08
2023-01-29T14:26:56.766Z,74.25
2023-01-29T14:30:24.164Z,74.89
2023-01-29T14:34:28.367Z,74.79
2023-01-29T14:37:58.889Z,74.66
2023-01-29T14:41:33.765Z,74.52
2023-01-29T14:45:31.475Z,74.43
2023-01-29T14:49:53.657Z,74.36
2023-01-29T14:54:16.529Z,74.53
2023-01-29T14:57:43.879Z,74.41
2023-01-29T15:01:47.578Z,74.29
2023-01-29T15:05:18.963Z,74.53
2023-01-29T15:09:35.884Z,75.09
2023-01-29T15:13:27.492Z,75.70
2023-01-29T15:17:27.452Z,75.16
2023-01-29T15:21:04.726Z,74.79
2023-01-29T15:25:14.701Z,74.99
2023-01-29T15:28:43.505Z,74.69
2023-01-29T15:32:28.569Z,74.88
2023-01-29T15:36:10.059Z,75.05
2023-01-29T15:39:54.452Z,74.89
2023-01-29T15:43:31.615Z,74.73
2023-01-29T15:47:15.990Z,75.00
2023-01-29T15:50:47.134Z,75.39
2023-01-29T15:54:19.313Z,75.40
2023-01-29T15:58:17.979Z,75.63
2023-01-29T16:01:42.875Z,75.21
2023-01-29T16:05:38.429Z,75.38
2023-01-29T16:09:04.956Z,74.93
2023-01-29T16:12:40.564Z,74.67
2023-01-29T16:16:25.125Z,74.73
2023-01-29T16:20:00.579Z,74.96
2023-01-29T16:23:57.564Z,74.85
2023-01-29T16:27:24.592Z,74.97
2023-01-29T16:31:03.840Z,74.95
2023-01-29T16:34:43.258Z,75.25
2023-01-29T16:38:35.425Z,75.81
2023-01-29T16:42:19.415Z,75.90
2023-01-29T16:46:03.418Z,75.86
2023-01-29T16:49:53.525Z,75.70
2023-01-29T16:53:23.142Z,75.50
2023-01-29T16:57:00.413Z,75.56
2023-01-29T17:00:33.380Z,75.42
2023-01-29T17:04:14.729Z,75.57
2023-01-29T17:07:49.224Z,75.33
2023-01-29T17:11:38.296Z,75.12
2023-01-29T17:15:43.535Z,75.41
2023-01-29T17:19:18.537Z,75.76
2023-01-29T17:23:05.705Z,76.50
2023-01-29T17:26:31.433Z,76.28
2023-01-29T17:30:15.406Z,76.18
2023-01-29T17:34:10.508Z,75.91
2023-01-29T17:37:36.257Z,76.18
2023-01-29T17:41:34.396Z,75.94
2023-01-29T17:45:00.655Z,76.10
2023-01-29T17:48:36.150Z,76.29
2023-01-29T17:52:39.462Z,76.82
2023-01-29T17:56:06.586Z,76.96
2023-01-29T17:59:41.318Z,77.05
2023-01-29T18:03:19.913Z,76.93
2023-01-29T18:06:58.103Z,76.40
2023-01-29T18:10:37.947Z,76.78
2023-01-29T18:14:31.590Z,76.78
2023-01-29T18:17:55.914Z,76.70
2023-01-29T18:21:34.620Z,76.81
2023-01-29T18:25:11.197Z,77.22
2023-01-29T18:28:50.045Z,77.84
2023-01-29T18:32:47.224Z,78.12
2023-01-29T18:36:11.660Z,78.03
2023-01-29T18:39:48.782Z,77.84
2023-01-29T18:43:27.223Z,78.02
2023-01-29T18:47:23.987Z,77.87
2023-01-29T18:50:58.550Z,77.68
2023-01-29T18:54:33.345Z,78.03
2023-01-29T18:58:37.794Z,78.54
2023-01-29T19:02:21.275Z,78.90
2023-01-29T19:06:08.412Z,79.30
2023-01-29T19:09:52.135Z,78.91
2023-01-29T19:13:37.386Z,79.15
2023-01-29T19:17:01.734Z,78.93
2023-01-29T19:20:42.973Z,79.22
2023-01-29T19:24:17.324Z,79.50
2023-01-29T19:27:54.700Z,80.02
2023-01-29T19:31:32.409Z,80.36
2023-01-29T19:35:09.822Z,80.35
2023-01-29T19:38:49.154Z,80.30
2023-01-29T19:42:25.655Z,80.68
2023-01-29T19:46:02.962Z,80.37
2023-01-29T19:49:59.615Z,80.65
2023-01-29T19:53:45.263Z,81.20
2023-01-29T19:57:12.835Z,81.43
2023-01-29T20:01:14.320Z,81.57
2023-01-29T20:05:00.479Z,81.31
2023-01-29T20:08:27.433Z,81.16
2023-01-29T20:12:02.548Z,81.12
2023-01-29T20:15:46.393Z,81.39
2023-01-29T20:19:40.784Z,81.65
2023-01-29T20:23:37.088Z,82.19
2023-01-29T20:27:21.560Z,82.85
2023-01-29T20:30:47.121Z,82.46
2023-01-29T20:34:24.163Z,82.55
2023-01-29T20:38:03.033Z,82.14
2023-01-29T20:41:59.361Z,82.01
2023-01-29T20:45:27.095Z,82.57
2023-01-29T20:49:21.388Z,83.21
2023-01-29T20:53:04.839Z,83.40
2023-01-29T20:56:37.412Z,83.43
2023-01-29T21:00:08.641Z,83.35
2023-01-29T21:03:49.078Z,83.45
2023-01-29T21:07:42.126Z,83.45
2023-01-29T21:11:07.447Z,83.84
2023-01-29T21:14:43.679Z,84.30
2023-01-29T21:18:22.278Z,84.31
2023-01-29T21:21:59.837Z,84.01
2023-01-29T21:26:08.206Z,84.02
2023-01-29T21:29:51.713Z,84.29
2023-01-29T21:33:15.605Z,84.38
2023-01-29T21:37:12.475Z,84.84
2023-01-29T21:40:38.651Z,85.05
2023-01-29T21:44:16.535Z,85.00
2023-01-29T21:47:54.465Z,84.73
2023-01-29T21:51:50.657Z,84.73
2023-01-29T21:55:16.345Z,84.72
2023-01-29T21:58:55.729Z,85.06
2023-01-29T22:02:34.314Z,85.57
2023-01-29T22:06:09.443Z,85.67
2023-01-29T22:09:45.514Z,85.69
2023-01-29T22:13:23.350Z,85.20
2023-01-29T22:17:00.888Z,85.11
2023-01-29T22:20:38.950Z,85.23
2023-01-29T22:24:35.173Z,85.45
2023-01-29T22:27:59.479Z,85.57
2023-01-29T22:31:55.847Z,85.79
2023-01-29T22:35:20.179Z,85.61
2023-01-29T22:38:57.539Z,85.36
2023-01-29T22:42:35.468Z,85.20
2023-01-29T22:46:13.198Z,85.13
2023-01-29T22:49:52.440Z,85.26
2023-01-29T22:53:28.485Z,85.66
2023-01-29T22:57:10.210Z,85.61
2023-01-29T23:01:20.177Z,85.65
2023-01-29T23:04:45.065Z,85.73
2023-01-29T23:08:21.775Z,85.39
2023-01-29T23:11:59.498Z,85.39
2023-01-29T23:15:36.963Z,85.51
2023-01-29T23:19:14.823Z,85.86
2023-01-29T23:23:11.167Z,85.92
2023-01-29T23:26:53.739Z,85.72
2023-01-29T23:30:18.655Z,85.72
2023-01-29T23:34:15.218Z,85.49
2023-01-29T23:37:39.042Z,85.27
2023-01-29T23:41:35.679Z,85.20
2023-01-29T23:44:59.681Z,85.37
2023-01-29T23:48:37.550Z,85.69
2023-01-29T23:52:34.303Z,85.92
2023-01-29T23:56:17.491Z,85.86
2023-01-29T23:59:44.086Z,85.60
